createdAt,value
2023-04-09T00:00:41.157Z,91779.28
2023-04-09T00:03:44.433Z,91777.63
2023-04-09T00:06:47.718Z,91775.50
2023-04-09T00:09:50.926Z,91767.34
2023-04-09T00:12:54.162Z,91763.06
2023-04-09T00:15:57.390Z,91761.97
2023-04-09T00:19:00.624Z,91753.06
2023-04-09T00:22:03.733Z,91754.94
2023-04-09T00:25:07.437Z,91745.13
2023-04-09T00:28:10.621Z,91748.13
2023-04-09T00:31:14.067Z,91738.16
2023-04-09T00:34:17.465Z,91741.84
2023-04-09T00:37:20.639Z,91740.38
2023-04-09T00:40:23.887Z,91740.44
2023-04-09T00:43:27.695Z,91724.44
2023-04-09T00:46:33.169Z,91723.31
2023-04-09T00:49:36.457Z,91735.34
2023-04-09T00:52:39.731Z,91727.59
2023-04-09T00:55:42.958Z,91722.56
2023-04-09T00:58:46.287Z,91722.53
2023-04-09T01:01:49.461Z,91710.50
2023-04-09T01:04:52.812Z,91700.94
2023-04-09T01:08:07.341Z,91692.94
2023-04-09T01:11:47.330Z,91685.84
2023-04-09T01:15:00.274Z,91686.50
2023-04-09T01:18:12.321Z,91686.78
2023-04-09T01:21:19.073Z,91696.13
2023-04-09T01:24:43.346Z,91701.38
2023-04-09T01:28:17.594Z,91689.66
2023-04-09T01:31:27.214Z,91681.69
2023-04-09T01:34:31.871Z,91683.78
2023-04-09T01:37:36.951Z,91669.69
2023-04-09T01:40:40.452Z,91659.63
2023-04-09T01:43:44.801Z,91661.03
2023-04-09T01:46:49.706Z,91655.47
2023-04-09T01:49:52.651Z,91639.56
2023-04-09T01:52:55.943Z,91634.50
2023-04-09T01:56:04.269Z,91646.81
2023-04-09T01:59:07.537Z,91642.88
2023-04-09T02:02:20.744Z,91638.78
2023-04-09T02:05:27.861Z,91625.69
2023-04-09T02:08:32.144Z,91619.16
2023-04-09T02:11:39.518Z,91614.50
2023-04-09T02:14:43.530Z,91605.69
2023-04-09T02:17:47.141Z,91607.34
2023-04-09T02:20:50.381Z,91612.34
2023-04-09T02:23:53.497Z,91607.88
2023-04-09T02:26:56.695Z,91590.69
2023-04-09T02:29:59.964Z,91587.94
2023-04-09T02:33:03.232Z,91568.81
2023-04-09T02:36:07.381Z,91572.41
2023-04-09T02:39:10.542Z,91554.91
2023-04-09T02:42:13.712Z,91557.22
2023-04-09T02:45:17.143Z,91557.88
2023-04-09T02:48:20.365Z,91557.84
2023-04-09T02:51:23.673Z,91552.50
2023-04-09T02:54:26.905Z,91540.13
2023-04-09T02:57:30.565Z,91520.53
2023-04-09T03:00:33.931Z,91518.75
2023-04-09T03:03:39.868Z,91516.09
2023-04-09T03:06:43.160Z,91510.88
2023-04-09T03:09:46.564Z,91501.41
2023-04-09T03:12:49.758Z,91495.53
2023-04-09T03:15:56.309Z,91509.66
2023-04-09T03:18:59.539Z,91488.72
2023-04-09T03:22:02.773Z,91497.63
2023-04-09T03:25:07.785Z,91484.16
2023-04-09T03:28:11.917Z,91481.28
2023-04-09T03:31:21.933Z,91468.75
2023-04-09T03:34:25.303Z,91463.44
2023-04-09T03:37:31.961Z,91452.16
2023-04-09T03:40:37.164Z,91440.72
2023-04-09T03:43:40.761Z,91428.91
2023-04-09T03:46:44.895Z,91422.63
2023-04-09T03:49:51.715Z,91417.28
2023-04-09T03:53:00.389Z,91415.59
2023-04-09T03:56:04.538Z,91412.09
2023-04-09T03:59:08.592Z,91406.03
2023-04-09T04:02:16.135Z,91405.34
2023-04-09T04:05:26.590Z,91408.94
2023-04-09T04:08:33.453Z,91392.16
2023-04-09T04:11:36.910Z,91387.56
2023-04-09T04:14:40.174Z,91386.25
2023-04-09T04:17:54.370Z,91380.03
2023-04-09T04:21:17.055Z,91370.66
2023-04-09T04:24:26.491Z,91377.84
2023-04-09T04:27:30.108Z,91370.31
2023-04-09T04:30:36.688Z,91366.84
2023-04-09T04:33:44.124Z,91358.28
2023-04-09T04:36:50.514Z,91361.03
2023-04-09T04:39:55.006Z,91358.16
2023-04-09T04:42:58.540Z,91359.69
2023-04-09T04:46:05.207Z,91354.66
2023-04-09T04:49:09.464Z,91340.06
2023-04-09T04:52:20.109Z,91335.41
2023-04-09T04:55:27.263Z,91340.50
2023-04-09T04:58:31.517Z,91333.50
2023-04-09T05:01:37.655Z,91315.09
2023-04-09T05:04:45.110Z,91318.13
2023-04-09T05:07:51.413Z,91311.09
2023-04-09T05:10:56.783Z,91310.38
2023-04-09T05:14:07.492Z,91302.31
2023-04-09T05:17:10.828Z,91296.50
2023-04-09T05:20:22.049Z,91291.34
2023-04-09T05:23:38.449Z,91300.28
2023-04-09T05:26:42.220Z,91289.25
2023-04-09T05:29:45.364Z,91280.44
2023-04-09T05:32:48.799Z,91274.22
2023-04-09T05:35:53.163Z,91273.41
2023-04-09T05:38:56.540Z,91283.72
2023-04-09T05:41:59.760Z,91269.19
2023-04-09T05:45:10.810Z,91272.00
2023-04-09T05:48:21.772Z,91262.88
2023-04-09T05:51:26.912Z,91252.69
2023-04-09T05:54:33.132Z,91251.06
2023-04-09T05:57:37.605Z,91253.72
2023-04-09T06:00:40.863Z,91251.19
2023-04-09T06:03:45.465Z,91251.72
2023-04-09T06:06:48.839Z,91246.66
2023-04-09T06:09:52.203Z,91237.00
2023-04-09T06:12:55.471Z,91227.97
2023-04-09T06:15:58.742Z,91237.81
2023-04-09T06:19:01.973Z,91244.34
2023-04-09T06:22:05.311Z,91241.22
2023-04-09T06:25:08.863Z,91244.75
2023-04-09T06:28:15.161Z,91234.56
2023-04-09T06:31:18.457Z,91234.50
2023-04-09T06:34:27.705Z,91231.63
2023-04-09T06:37:30.987Z,91235.81
2023-04-09T06:40:34.121Z,91233.53
2023-04-09T06:43:38.194Z,91227.09
2023-04-09T06:46:41.680Z,91217.91
2023-04-09T06:49:45.078Z,91226.91
2023-04-09T06:52:48.540Z,91219.38
2023-04-09T06:55:52.045Z,91220.72
2023-04-09T06:58:55.316Z,91206.06
2023-04-09T07:01:58.892Z,91210.53
2023-04-09T07:05:05.505Z,91196.00
2023-04-09T07:08:08.727Z,91198.72
2023-04-09T07:11:12.226Z,91191.50
2023-04-09T07:14:15.345Z,91190.00
2023-04-09T07:17:18.510Z,91187.22
2023-04-09T07:20:21.985Z,91181.06
2023-04-09T07:23:25.291Z,91173.97
2023-04-09T07:26:29.965Z,91177.44
2023-04-09T07:29:33.221Z,91165.81
2023-04-09T07:32:36.581Z,91165.63
2023-04-09T07:35:40.029Z,91147.34
2023-04-09T07:38:43.292Z,91144.88
2023-04-09T07:41:47.968Z,91138.13
2023-04-09T07:44:51.292Z,91135.59
2023-04-09T07:47:57.314Z,91129.59
2023-04-09T07:51:01.092Z,91134.78
2023-04-09T07:54:04.396Z,91122.97
2023-04-09T07:57:08.181Z,91110.47
2023-04-09T08:00:11.979Z,91104.88
2023-04-09T08:03:20.260Z,91103.59
2023-04-09T08:06:23.818Z,91097.34
2023-04-09T08:09:27.027Z,91101.03
2023-04-09T08:12:30.351Z,91094.22
2023-04-09T08:15:33.907Z,91101.41
2023-04-09T08:18:37.137Z,91084.16
2023-04-09T08:21:45.130Z,91086.66
2023-04-09T08:24:52.797Z,91075.31
2023-04-09T08:27:56.146Z,91061.94
2023-04-09T08:30:59.329Z,91054.66
2023-04-09T08:34:02.665Z,91054.31
2023-04-09T08:37:08.770Z,91048.16
2023-04-09T08:40:12.736Z,91028.72
2023-04-09T08:43:17.489Z,91034.72
2023-04-09T08:46:21.243Z,91015.44
2023-04-09T08:49:24.753Z,91008.84
2023-04-09T08:52:35.574Z,90992.91
2023-04-09T08:55:39.133Z,91000.13
2023-04-09T08:58:46.771Z,90992.47
2023-04-09T09:01:54.985Z,90990.69
2023-04-09T09:05:01.661Z,90994.53
2023-04-09T09:08:05.259Z,90984.06
2023-04-09T09:11:08.583Z,90996.19
2023-04-09T09:14:14.381Z,90991.41
2023-04-09T09:17:18.863Z,90985.81
2023-04-09T09:20:22.941Z,90975.59
2023-04-09T09:23:38.088Z,90976.41
2023-04-09T09:26:41.767Z,90965.97
2023-04-09T09:29:45.753Z,90953.25
2023-04-09T09:33:05.554Z,90950.34
2023-04-09T09:36:12.343Z,90949.03
2023-04-09T09:39:20.781Z,90942.28
2023-04-09T09:42:24.209Z,90943.94
2023-04-09T09:45:27.542Z,90938.94
2023-04-09T09:48:32.172Z,90937.16
2023-04-09T09:51:38.192Z,90943.09
2023-04-09T09:54:44.684Z,90943.91
2023-04-09T09:57:51.275Z,90946.69
2023-04-09T10:00:58.212Z,90943.50
2023-04-09T10:04:03.528Z,90947.53
2023-04-09T10:07:08.863Z,90941.75
2023-04-09T10:10:12.322Z,90930.72
2023-04-09T10:13:26.295Z,90930.19
2023-04-09T10:16:29.915Z,90936.28
2023-04-09T10:19:39.729Z,90934.28
2023-04-09T10:22:47.906Z,90932.31
2023-04-09T10:25:51.475Z,90934.31
2023-04-09T10:29:09.238Z,90924.53
2023-04-09T10:32:12.822Z,90914.19
2023-04-09T10:35:30.001Z,90926.75
2023-04-09T10:38:39.232Z,90929.59
2023-04-09T10:41:50.435Z,90931.66
2023-04-09T10:45:11.206Z,90919.91
2023-04-09T10:48:14.936Z,90907.69
2023-04-09T10:51:21.300Z,90909.69
2023-04-09T10:54:38.112Z,90906.28
2023-04-09T10:57:44.397Z,90906.00
2023-04-09T11:00:49.951Z,90889.38
2023-04-09T11:04:17.526Z,90905.03
2023-04-09T11:07:22.989Z,90903.72
2023-04-09T11:10:26.492Z,90909.75
2023-04-09T11:13:31.101Z,90914.47
2023-04-09T11:16:34.568Z,90918.50
2023-04-09T11:19:37.956Z,90923.72
2023-04-09T11:22:41.211Z,90922.53
2023-04-09T11:25:49.673Z,90917.31
2023-04-09T11:29:01.164Z,90920.00
2023-04-09T11:32:05.963Z,90917.44
2023-04-09T11:35:17.519Z,90933.38
2023-04-09T11:38:20.950Z,90910.91
2023-04-09T11:41:37.741Z,90895.50
2023-04-09T11:44:41.751Z,90883.22
2023-04-09T11:47:46.486Z,90863.03
2023-04-09T11:50:49.912Z,90852.91
2023-04-09T11:53:53.114Z,90856.88
2023-04-09T11:56:56.856Z,90875.72
2023-04-09T12:00:01.222Z,90870.69
2023-04-09T12:03:08.906Z,90874.72
2023-04-09T12:06:12.197Z,90899.38
2023-04-09T12:09:16.838Z,90890.34
2023-04-09T12:12:21.616Z,90892.34
2023-04-09T12:15:26.208Z,90889.72
2023-04-09T12:18:29.719Z,90884.53
2023-04-09T12:21:56.620Z,90893.19
2023-04-09T12:24:59.918Z,90887.97
2023-04-09T12:28:04.112Z,90917.75
2023-04-09T12:31:12.098Z,90923.06
2023-04-09T12:34:15.566Z,90903.78
2023-04-09T12:37:18.742Z,90907.09
2023-04-09T12:40:23.287Z,90900.50
2023-04-09T12:43:27.249Z,90886.13
2023-04-09T12:46:33.010Z,90901.16
2023-04-09T12:49:36.794Z,90901.44
2023-04-09T12:52:40.499Z,90901.50
2023-04-09T12:55:46.868Z,90897.06
2023-04-09T12:58:50.293Z,90881.50
2023-04-09T13:01:56.998Z,90870.34
2023-04-09T13:05:00.807Z,90879.53
2023-04-09T13:08:04.210Z,90863.91
2023-04-09T13:11:07.953Z,90841.84
2023-04-09T13:14:15.012Z,90822.94
2023-04-09T13:17:18.901Z,90820.88
2023-04-09T13:20:22.227Z,90818.28
2023-04-09T13:23:25.573Z,90815.81
2023-04-09T13:26:28.911Z,90811.28
2023-04-09T13:29:33.270Z,90807.50
2023-04-09T13:32:37.227Z,90795.16
2023-04-09T13:35:40.420Z,90801.03
2023-04-09T13:38:43.681Z,90793.44
2023-04-09T13:41:47.311Z,90783.84
2023-04-09T13:44:50.599Z,90787.88
2023-04-09T13:47:54.553Z,90771.06
2023-04-09T13:50:58.396Z,90771.78
2023-04-09T13:54:02.793Z,90747.09
2023-04-09T13:57:07.875Z,90734.75
2023-04-09T14:00:12.160Z,90706.94
2023-04-09T14:03:15.673Z,90707.00
2023-04-09T14:06:18.931Z,90710.97
2023-04-09T14:09:22.253Z,90725.22
2023-04-09T14:12:25.521Z,90730.50
2023-04-09T14:15:28.764Z,90719.63
2023-04-09T14:18:32.021Z,90727.56
2023-04-09T14:21:35.251Z,90719.22
2023-04-09T14:24:40.542Z,90703.69
2023-04-09T14:27:43.871Z,90707.66
2023-04-09T14:30:47.190Z,90702.63
2023-04-09T14:33:50.380Z,90713.25
2023-04-09T14:36:53.777Z,90712.84
2023-04-09T14:39:56.939Z,90691.59
2023-04-09T14:43:01.758Z,90686.97
2023-04-09T14:46:07.025Z,90681.88
2023-04-09T14:49:10.651Z,90666.41
2023-04-09T14:52:13.901Z,90667.88
2023-04-09T14:55:17.093Z,90649.72
2023-04-09T14:58:20.368Z,90644.47
2023-04-09T15:01:23.560Z,90644.28
2023-04-09T15:04:27.186Z,90642.28
2023-04-09T15:07:30.594Z,90635.06
2023-04-09T15:10:33.871Z,90634.53
2023-04-09T15:13:37.116Z,90646.19
2023-04-09T15:16:40.506Z,90648.72
2023-04-09T15:19:43.688Z,90638.28
2023-04-09T15:22:47.006Z,90623.81
2023-04-09T15:25:50.192Z,90633.44
2023-04-09T15:28:54.383Z,90638.16
2023-04-09T15:31:57.839Z,90634.38
2023-04-09T15:35:01.592Z,90630.56
2023-04-09T15:38:05.292Z,90621.72
2023-04-09T15:41:08.917Z,90613.94
2023-04-09T15:44:12.245Z,90616.53
2023-04-09T15:47:15.681Z,90618.59
2023-04-09T15:50:18.909Z,90610.97
2023-04-09T15:53:24.518Z,90611.88
2023-04-09T15:56:27.744Z,90611.25
2023-04-09T15:59:30.953Z,90604.50
2023-04-09T16:02:34.280Z,90608.38
2023-04-09T16:05:37.460Z,90587.22
2023-04-09T16:08:40.908Z,90584.09
2023-04-09T16:11:44.156Z,90578.28
2023-04-09T16:14:47.398Z,90566.50
2023-04-09T16:17:50.685Z,90552.88
2023-04-09T16:20:57.313Z,90549.38
2023-04-09T16:24:02.035Z,90557.69
2023-04-09T16:27:05.449Z,90552.50
2023-04-09T16:30:09.003Z,90557.03
2023-04-09T16:33:12.309Z,90538.84
2023-04-09T16:36:15.527Z,90520.03
2023-04-09T16:39:20.256Z,90517.34
2023-04-09T16:42:23.515Z,90512.16
2023-04-09T16:45:26.901Z,90497.16
2023-04-09T16:48:30.159Z,90480.91
2023-04-09T16:51:33.432Z,90500.25
2023-04-09T16:54:36.592Z,90480.16
2023-04-09T16:57:42.192Z,90484.69
2023-04-09T17:00:47.398Z,90474.50
2023-04-09T17:03:51.882Z,90467.69
2023-04-09T17:06:55.252Z,90453.66
2023-04-09T17:09:58.554Z,90465.69
2023-04-09T17:13:01.996Z,90458.69
2023-04-09T17:16:05.471Z,90454.81
2023-04-09T17:19:09.580Z,90449.84
2023-04-09T17:22:14.605Z,90460.91
2023-04-09T17:25:18.488Z,90442.84
2023-04-09T17:28:21.898Z,90445.38
2023-04-09T17:31:25.427Z,90443.47
2023-04-09T17:34:28.927Z,90440.28
2023-04-09T17:37:32.431Z,90431.81
2023-04-09T17:40:35.590Z,90435.47
2023-04-09T17:43:41.474Z,90435.34
2023-04-09T17:46:44.941Z,90428.72
2023-04-09T17:49:48.195Z,90433.78
2023-04-09T17:52:51.379Z,90423.44
2023-04-09T17:55:54.531Z,90405.25
2023-04-09T17:58:57.827Z,90391.50
2023-04-09T18:02:01.680Z,90382.84
2023-04-09T18:05:05.546Z,90352.84
2023-04-09T18:08:09.016Z,90345.56
2023-04-09T18:11:13.583Z,90331.81
2023-04-09T18:14:16.896Z,90315.47
2023-04-09T18:17:20.152Z,90299.16
2023-04-09T18:20:23.339Z,90292.59
2023-04-09T18:23:27.653Z,90278.84
2023-04-09T18:26:31.504Z,90270.22
2023-04-09T18:29:34.783Z,90275.47
2023-04-09T18:32:38.319Z,90284.88
2023-04-09T18:35:41.505Z,90280.84
2023-04-09T18:38:44.658Z,90287.69
2023-04-09T18:41:48.002Z,90290.53
2023-04-09T18:44:51.465Z,90276.47
2023-04-09T18:47:54.850Z,90277.00
2023-04-09T18:51:01.114Z,90278.31
2023-04-09T18:54:04.410Z,90275.63
2023-04-09T18:57:08.105Z,90277.97
2023-04-09T19:00:12.035Z,90281.00
2023-04-09T19:03:20.041Z,90292.59
2023-04-09T19:06:24.026Z,90280.44
2023-04-09T19:09:27.731Z,90276.53
2023-04-09T19:12:31.103Z,90274.41
2023-04-09T19:15:34.306Z,90287.22
2023-04-09T19:18:38.325Z,90295.41
2023-04-09T19:21:41.871Z,90293.28
2023-04-09T19:24:45.563Z,90292.66
2023-04-09T19:27:48.792Z,90301.16
2023-04-09T19:30:53.194Z,90293.38
2023-04-09T19:33:56.542Z,90289.00
2023-04-09T19:36:59.608Z,90276.88
2023-04-09T19:40:05.085Z,90265.25
2023-04-09T19:43:08.446Z,90255.56
2023-04-09T19:46:11.580Z,90246.44
2023-04-09T19:49:15.885Z,90241.25
2023-04-09T19:52:19.132Z,90228.34
2023-04-09T19:55:25.678Z,90235.38
2023-04-09T19:58:28.872Z,90227.53
2023-04-09T20:01:32.209Z,90230.78
2023-04-09T20:04:35.451Z,90221.75
2023-04-09T20:07:39.086Z,90223.09
2023-04-09T20:10:43.489Z,90224.47
2023-04-09T20:13:48.306Z,90219.97
2023-04-09T20:16:51.610Z,90214.22
2023-04-09T20:19:56.351Z,90222.06
2023-04-09T20:22:59.689Z,90219.53
2023-04-09T20:26:03.452Z,90215.66
2023-04-09T20:29:06.999Z,90214.38
2023-04-09T20:32:10.348Z,90205.34
2023-04-09T20:35:14.937Z,90212.59
2023-04-09T20:38:21.087Z,90212.59
2023-04-09T20:41:24.518Z,90208.09
2023-04-09T20:44:28.866Z,90218.63
2023-04-09T20:47:32.280Z,90205.22
2023-04-09T20:50:35.482Z,90202.81
2023-04-09T20:53:39.418Z,90193.84
2023-04-09T20:56:42.583Z,90197.31
2023-04-09T20:59:45.985Z,90200.06
2023-04-09T21:02:49.257Z,90189.13
2023-04-09T21:05:52.966Z,90200.13
2023-04-09T21:08:57.426Z,90197.66
2023-04-09T21:12:05.261Z,90204.16
2023-04-09T21:15:09.025Z,90196.41
2023-04-09T21:18:12.249Z,90203.56
2023-04-09T21:21:15.514Z,90202.28
2023-04-09T21:24:19.047Z,90201.06
2023-04-09T21:27:22.280Z,90193.44
2023-04-09T21:30:25.473Z,90198.66
2023-04-09T21:33:30.042Z,90198.78
2023-04-09T21:36:38.159Z,90205.97
2023-04-09T21:39:41.365Z,90212.59
2023-04-09T21:42:44.541Z,90228.28
2023-04-09T21:45:47.852Z,90231.56
2023-04-09T21:48:51.243Z,90237.66
2023-04-09T21:51:56.354Z,90250.81
2023-04-09T21:54:59.175Z,90251.59
2023-04-09T21:58:02.391Z,90247.28
2023-04-09T22:01:07.432Z,90253.22
2023-04-09T22:04:14.292Z,90259.09
2023-04-09T22:07:17.530Z,90261.75
2023-04-09T22:10:21.211Z,90257.25
2023-04-09T22:13:24.371Z,90256.00
2023-04-09T22:16:27.809Z,90258.00
2023-04-09T22:19:32.224Z,90254.13
2023-04-09T22:22:35.355Z,90252.97
2023-04-09T22:25:38.492Z,90258.84
2023-04-09T22:28:41.634Z,90251.91
2023-04-09T22:31:45.202Z,90249.41
2023-04-09T22:34:48.388Z,90254.63
2023-04-09T22:37:51.615Z,90250.97
2023-04-09T22:40:55.261Z,90248.56
2023-04-09T22:43:59.063Z,90235.66
2023-04-09T22:47:02.194Z,90232.53
2023-04-09T22:50:06.994Z,90229.94
2023-04-09T22:53:10.193Z,90230.59
2023-04-09T22:56:14.019Z,90222.78
2023-04-09T22:59:17.485Z,90220.22
2023-04-09T23:02:20.900Z,90219.53
2023-04-09T23:05:24.249Z,90214.94
2023-04-09T23:08:27.913Z,90210.94
2023-04-09T23:11:31.321Z,90206.97
2023-04-09T23:14:34.880Z,90206.91
2023-04-09T23:17:38.681Z,90201.69
2023-04-09T23:20:41.865Z,90197.13
2023-04-09T23:23:45.135Z,90194.41
2023-04-09T23:26:48.681Z,90195.63
2023-04-09T23:29:51.899Z,90187.84
2023-04-09T23:32:57.469Z,90194.25
2023-04-09T23:36:01.349Z,90194.19
2023-04-09T23:39:04.864Z,90183.72
2023-04-09T23:42:08.098Z,90180.41
2023-04-09T23:45:12.372Z,90186.78
2023-04-09T23:48:15.758Z,90182.19
2023-04-09T23:51:20.086Z,90177.56
2023-04-09T23:54:24.052Z,90179.34
2023-04-09T23:57:28.510Z,90174.59
